Time;durP1;ratioP1;P1;durP2;ratioP2;P2;SDS_P1;SDS_P2;PMS_P1;PMS_P2;Temp;Humidity;BMP_temperature;BMP_pressure;BME280_temperature;BME280_humidity;BME280_pressure;Samples;Min_cycle;Max_cycle;Signal;HPM_P1;HPM_P2
2022/04/23 00:00:30;;;;;;;2.42;1.27;;;12.80;96.70;;;;;;5076443;28;20604;-82
2022/04/23 00:02:59;;;;;;;4.20;1.55;;;12.80;96.70;;;;;;5082348;28;20105;-82
2022/04/23 00:05:28;;;;;;;2.33;1.50;;;12.80;96.70;;;;;;5071229;28;20114;-82
2022/04/23 00:07:56;;;;;;;2.00;1.30;;;12.80;96.70;;;;;;5084675;28;20067;-82
2022/04/23 00:10:25;;;;;;;1.88;1.30;;;12.90;96.70;;;;;;5070402;28;20100;-81
2022/04/23 00:12:54;;;;;;;2.22;1.15;;;12.90;96.70;;;;;;5079213;28;20126;-82
2022/04/23 00:15:25;;;;;;;1.73;1.10;;;12.90;96.70;;;;;;5063644;28;20070;-82
2022/04/23 00:17:57;;;;;;;2.58;1.10;;;13.00;96.70;;;;;;5059906;28;20051;-82
2022/04/23 00:20:25;;;;;;;2.10;1.30;;;13.00;96.70;;;;;;5060567;28;20086;-82
2022/04/23 00:22:53;;;;;;;2.42;1.35;;;13.00;96.70;;;;;;5058771;28;20044;-82
2022/04/23 00:25:21;;;;;;;1.70;1.00;;;13.00;96.70;;;;;;5073680;28;20823;-82
2022/04/23 00:27:50;;;;;;;1.83;1.40;;;13.00;96.70;;;;;;5070301;28;20238;-82
2022/04/23 00:30:19;;;;;;;3.10;1.50;;;13.00;96.70;;;;;;5079941;28;20048;-82
2022/04/23 00:32:47;;;;;;;3.60;1.30;;;13.00;96.70;;;;;;5073108;28;20523;-82
2022/04/23 00:35:15;;;;;;;4.28;1.55;;;13.00;96.70;;;;;;5078051;28;20536;-81
2022/04/23 00:37:45;;;;;;;3.00;1.15;;;13.00;96.70;;;;;;5061692;28;20078;-81
2022/04/23 00:40:17;;;;;;;4.80;1.15;;;12.90;96.70;;;;;;5074428;28;20470;-81
2022/04/23 00:42:46;;;;;;;3.30;1.38;;;12.90;96.70;;;;;;5055303;28;20472;-82
2022/04/23 00:45:16;;;;;;;2.13;1.10;;;12.90;96.70;;;;;;5074892;28;20502;-81
2022/04/23 00:47:43;;;;;;;1.98;1.10;;;12.90;96.70;;;;;;5073139;28;20044;-82
2022/04/23 00:50:12;;;;;;;1.58;0.85;;;12.90;96.70;;;;;;5074377;28;20045;-82
2022/04/23 00:52:40;;;;;;;1.23;0.80;;;12.90;96.70;;;;;;5074946;28;20809;-82
2022/04/23 00:55:09;;;;;;;2.10;0.95;;;12.90;96.70;;;;;;5081079;28;20044;-82
2022/04/23 00:57:37;;;;;;;2.63;1.10;;;12.90;96.70;;;;;;5074883;28;20090;-83
2022/04/23 01:00:06;;;;;;;2.00;1.00;;;12.90;96.70;;;;;;5075259;28;20051;-82
2022/04/23 01:02:36;;;;;;;2.60;1.10;;;12.90;96.70;;;;;;5072238;28;20139;-82
2022/04/23 01:05:08;;;;;;;1.85;1.02;;;12.90;96.70;;;;;;5061675;28;20041;-82
2022/04/23 01:07:39;;;;;;;2.17;0.90;;;12.90;96.70;;;;;;5071601;28;20048;-82
2022/04/23 01:10:07;;;;;;;1.13;0.80;;;12.80;96.70;;;;;;5074490;28;20048;-82
2022/04/23 01:12:36;;;;;;;3.97;1.10;;;12.80;96.70;;;;;;5071784;28;20516;-82
2022/04/23 01:15:06;;;;;;;2.65;0.98;;;12.90;96.70;;;;;;5078691;28;20066;-82
2022/04/23 01:17:36;;;;;;;1.33;0.95;;;12.80;96.70;;;;;;5075851;28;20043;-81
2022/04/23 01:20:07;;;;;;;2.92;0.90;;;12.80;96.70;;;;;;5072010;28;20132;-82
2022/04/23 01:22:36;;;;;;;2.83;1.23;;;12.80;96.70;;;;;;5080219;28;20040;-82
2022/04/23 01:25:06;;;;;;;2.10;1.00;;;12.80;96.70;;;;;;5055972;28;20052;-82
2022/04/23 01:27:34;;;;;;;2.20;0.63;;;12.70;96.70;;;;;;5077399;28;20051;-82
2022/04/23 01:30:03;;;;;;;2.47;0.85;;;12.70;96.70;;;;;;5076426;28;20386;-82
2022/04/23 01:32:31;;;;;;;1.83;0.85;;;12.60;96.70;;;;;;5070657;28;20079;-82
2022/04/23 01:34:58;;;;;;;1.35;0.88;;;12.60;96.70;;;;;;5075064;28;20481;-82
2022/04/23 01:37:28;;;;;;;2.75;1.02;;;12.70;96.70;;;;;;5078835;28;20072;-82
2022/04/23 01:39:56;;;;;;;3.72;1.15;;;12.70;96.70;;;;;;5070012;28;20047;-82
2022/04/23 01:42:24;;;;;;;2.55;1.00;;;12.70;96.70;;;;;;5077287;28;20055;-80
2022/04/23 01:44:53;;;;;;;1.80;1.08;;;12.70;96.70;;;;;;5074342;28;20075;-80
2022/04/23 01:47:20;;;;;;;2.88;1.38;;;12.70;96.70;;;;;;5076168;28;20045;-80
2022/04/23 01:49:48;;;;;;;2.60;1.40;;;12.70;96.70;;;;;;5070229;28;20080;-79
2022/04/23 01:52:16;;;;;;;2.50;1.23;;;12.70;96.70;;;;;;5071927;28;20044;-80
2022/04/23 01:54:45;;;;;;;1.10;1.00;;;12.70;96.70;;;;;;5067006;28;20448;-80
2022/04/23 01:57:13;;;;;;;1.77;1.08;;;12.80;96.70;;;;;;5076556;28;20586;-80
2022/04/23 01:59:40;;;;;;;2.78;1.30;;;12.80;96.70;;;;;;5069796;28;20048;-80
2022/04/23 02:02:08;;;;;;;2.42;1.10;;;12.80;96.70;;;;;;5059258;28;20136;-79
2022/04/23 02:04:36;;;;;;;1.77;1.20;;;12.80;96.70;;;;;;5074312;28;20047;-80
2022/04/23 02:07:04;;;;;;;1.33;1.23;;;12.80;96.70;;;;;;5074058;28;20036;-79
2022/04/23 02:09:33;;;;;;;1.73;1.33;;;12.80;96.70;;;;;;5053412;28;20484;-83
2022/04/23 02:12:02;;;;;;;2.45;1.40;;;12.90;96.70;;;;;;5078736;28;20052;-80
2022/04/23 02:14:30;;;;;;;2.15;1.35;;;12.80;96.70;;;;;;5075383;28;20079;-80
2022/04/23 02:16:58;;;;;;;2.17;1.77;;;12.80;96.70;;;;;;5079086;28;20036;-81
2022/04/23 02:19:26;;;;;;;3.05;1.38;;;12.80;96.70;;;;;;5077069;28;20059;-82
2022/04/23 02:21:54;;;;;;;1.73;1.38;;;12.80;96.70;;;;;;5073351;28;20571;-82
2022/04/23 02:24:22;;;;;;;2.53;1.35;;;12.80;96.70;;;;;;5070431;28;20597;-82
2022/04/23 02:26:49;;;;;;;1.77;1.55;;;12.90;96.70;;;;;;5079072;28;20043;-82
2022/04/23 02:29:19;;;;;;;2.45;1.58;;;12.90;96.70;;;;;;5065637;28;20056;-82
2022/04/23 02:31:47;;;;;;;2.30;1.40;;;12.70;96.70;;;;;;5092678;28;20504;-82
2022/04/23 02:34:16;;;;;;;1.58;1.40;;;12.50;96.70;;;;;;5074294;28;20047;-82
2022/04/23 02:36:46;;;;;;;1.92;1.35;;;12.60;96.70;;;;;;5076881;28;20052;-80
2022/04/23 02:39:14;;;;;;;1.95;1.50;;;12.60;96.70;;;;;;5071433;28;20065;-80
2022/04/23 02:41:42;;;;;;;2.15;1.13;;;12.60;96.70;;;;;;5062556;28;20048;-81
2022/04/23 02:44:09;;;;;;;2.03;1.20;;;12.70;96.70;;;;;;5071773;28;20424;-80
2022/04/23 02:46:39;;;;;;;1.38;1.02;;;12.60;96.70;;;;;;5083414;28;20140;-80
2022/04/23 02:49:06;;;;;;;3.00;1.20;;;12.60;96.70;;;;;;5057100;28;20048;-81
2022/04/23 02:51:34;;;;;;;1.67;0.98;;;12.60;96.70;;;;;;5070144;28;20040;-80
2022/04/23 02:54:02;;;;;;;1.50;1.00;;;12.60;96.70;;;;;;5080779;28;20044;-80
2022/04/23 02:56:33;;;;;;;4.45;1.05;;;12.60;96.70;;;;;;5057655;28;20067;-81
2022/04/23 02:59:02;;;;;;;1.15;0.80;;;12.60;96.70;;;;;;5074734;28;20093;-80
2022/04/23 03:01:30;;;;;;;3.85;1.00;;;12.50;96.70;;;;;;5057152;28;20047;-80
2022/04/23 03:03:59;;;;;;;2.35;0.55;;;12.50;96.70;;;;;;5073805;28;20073;-81
2022/04/23 03:06:29;;;;;;;2.30;0.60;;;12.50;96.70;;;;;;5072598;28;20047;-81
2022/04/23 03:09:02;;;;;;;1.85;0.80;;;12.50;96.70;;;;;;5081277;28;20568;-81
2022/04/23 03:11:31;;;;;;;2.55;0.80;;;12.50;96.70;;;;;;5083236;28;20048;-81
2022/04/23 03:13:59;;;;;;;2.70;0.85;;;12.50;96.70;;;;;;5074847;28;20605;-81
2022/04/23 03:16:27;;;;;;;1.70;0.90;;;12.50;96.70;;;;;;5076837;28;20477;-81
2022/04/23 03:18:56;;;;;;;3.25;0.90;;;12.40;96.70;;;;;;5077607;28;20048;-80
2022/04/23 03:21:26;;;;;;;1.60;0.90;;;12.40;96.70;;;;;;5081982;28;20048;-81
2022/04/23 03:23:54;;;;;;;3.67;0.70;;;12.40;96.70;;;;;;5079510;28;20052;-80
2022/04/23 03:26:21;;;;;;;2.78;0.70;;;12.40;96.70;;;;;;5082892;28;20044;-80
2022/04/23 03:28:49;;;;;;;1.42;0.70;;;12.40;96.70;;;;;;5077244;28;20040;-81
2022/04/23 03:31:17;;;;;;;1.48;0.60;;;12.40;96.70;;;;;;5076778;28;20070;-81
2022/04/23 03:33:45;;;;;;;0.98;0.52;;;12.40;96.70;;;;;;5078140;28;20450;-82
2022/04/23 03:36:28;;;;;;;1.83;0.50;;;12.40;96.70;;;;;;5036567;28;20064;-80
2022/04/23 03:38:56;;;;;;;0.98;0.73;;;12.40;96.70;;;;;;5036332;28;20046;-80
2022/04/23 03:41:25;;;;;;;1.90;0.70;;;12.40;96.70;;;;;;5016662;28;20083;-80
2022/04/23 03:43:53;;;;;;;1.10;0.75;;;12.40;96.70;;;;;;5038926;28;20076;-82
2022/04/23 03:46:21;;;;;;;2.95;0.68;;;12.40;96.70;;;;;;5034946;28;20081;-81
2022/04/23 03:48:49;;;;;;;2.22;0.55;;;12.40;96.70;;;;;;4995853;28;20165;-81
2022/04/23 03:51:17;;;;;;;0.80;0.52;;;12.40;96.70;;;;;;5018748;28;20558;-82
2022/04/23 03:53:46;;;;;;;0.90;0.63;;;12.40;96.70;;;;;;5023446;28;20459;-82
2022/04/23 03:56:14;;;;;;;1.25;0.60;;;12.40;96.70;;;;;;5012053;28;20053;-80
2022/04/23 03:58:44;;;;;;;1.02;0.60;;;12.40;96.70;;;;;;5017762;28;20041;-80
2022/04/23 04:01:14;;;;;;;2.20;0.60;;;12.30;96.70;;;;;;5000399;28;20072;-82
2022/04/23 04:03:43;;;;;;;0.82;0.60;;;12.30;96.70;;;;;;5019978;28;20465;-81
2022/04/23 04:06:11;;;;;;;3.20;0.60;;;12.20;96.70;;;;;;5023559;28;20123;-81
2022/04/23 04:08:40;;;;;;;1.50;0.80;;;12.30;96.70;;;;;;5035845;28;20053;-81
2022/04/23 04:11:09;;;;;;;1.35;0.65;;;12.30;96.70;;;;;;5030427;28;20136;-82
2022/04/23 04:13:38;;;;;;;1.50;0.68;;;12.20;96.70;;;;;;5050076;28;20111;-80
2022/04/23 04:16:07;;;;;;;1.92;0.77;;;12.20;96.70;;;;;;5077110;28;20044;-81
2022/04/23 04:18:36;;;;;;;1.80;0.60;;;12.20;96.70;;;;;;5078573;28;20114;-80
2022/04/23 04:21:04;;;;;;;1.95;0.60;;;12.20;96.70;;;;;;5079585;28;20073;-81
2022/04/23 04:23:32;;;;;;;0.98;0.70;;;12.10;96.70;;;;;;5081543;28;20601;-81
2022/04/23 04:26:00;;;;;;;4.82;0.90;;;12.10;96.70;;;;;;5062744;28;20044;-82
2022/04/23 04:28:31;;;;;;;1.40;0.90;;;12.00;96.70;;;;;;5076031;28;20067;-80
2022/04/23 04:33:45;;;;;;;3.95;0.80;;;12.00;96.70;;;;;;5072102;28;20052;-80
2022/04/23 04:36:13;;;;;;;1.27;0.90;;;12.00;96.70;;;;;;5078370;28;20040;-81
2022/04/23 04:38:41;;;;;;;1.60;0.93;;;12.00;96.70;;;;;;5063910;28;20475;-81
2022/04/23 04:41:09;;;;;;;1.30;0.68;;;12.00;96.70;;;;;;5082711;28;20056;-79
2022/04/23 04:43:39;;;;;;;0.80;0.60;;;12.00;96.70;;;;;;5073523;28;20044;-81
2022/04/23 04:46:08;;;;;;;1.63;0.73;;;12.00;96.70;;;;;;5079148;28;20044;-82
2022/04/23 04:48:36;;;;;;;2.83;1.80;;;12.00;96.70;;;;;;5074151;28;20072;-80
2022/04/23 04:51:04;;;;;;;4.82;2.17;;;12.00;96.70;;;;;;5060587;28;20059;-81
2022/04/23 04:53:32;;;;;;;4.53;1.00;;;12.00;96.70;;;;;;5057638;28;20056;-82
2022/04/23 04:56:00;;;;;;;1.17;0.98;;;12.10;96.70;;;;;;5081368;28;20706;-80
2022/04/23 04:58:28;;;;;;;1.98;0.80;;;12.10;96.70;;;;;;5073441;28;20119;-81
2022/04/23 05:00:57;;;;;;;3.50;0.70;;;12.10;96.70;;;;;;5075605;28;20051;-82
2022/04/23 05:03:25;;;;;;;2.00;0.98;;;12.10;96.70;;;;;;5074864;28;20655;-82
2022/04/23 05:05:53;;;;;;;2.53;1.10;;;12.10;96.70;;;;;;5073907;28;20059;-82
2022/04/23 05:08:21;;;;;;;2.22;1.30;;;12.20;96.70;;;;;;5073432;28;20036;-80
2022/04/23 05:10:49;;;;;;;2.20;1.40;;;12.30;96.70;;;;;;5056425;28;20055;-80
2022/04/23 05:13:17;;;;;;;1.60;1.17;;;12.40;96.70;;;;;;5073964;28;20044;-81
2022/04/23 05:15:45;;;;;;;2.85;1.10;;;12.40;96.70;;;;;;5077504;28;20052;-80
2022/04/23 05:18:14;;;;;;;2.25;1.05;;;12.40;96.70;;;;;;5076546;28;20056;-81
2022/04/23 05:20:42;;;;;;;2.33;1.60;;;12.40;96.70;;;;;;5078527;28;21000;-81
2022/04/23 05:23:10;;;;;;;1.50;1.40;;;12.50;96.70;;;;;;5072201;28;20052;-81
2022/04/23 05:25:38;;;;;;;2.65;1.48;;;12.60;96.70;;;;;;5074660;28;20040;-81
2022/04/23 05:28:06;;;;;;;2.45;1.35;;;12.60;96.70;;;;;;5076742;28;20044;-81
2022/04/23 05:30:37;;;;;;;1.50;1.30;;;12.60;96.70;;;;;;5080083;28;20044;-80
2022/04/23 05:33:05;;;;;;;1.83;1.10;;;12.60;96.70;;;;;;5074218;28;20135;-82
2022/04/23 05:35:35;;;;;;;1.85;1.20;;;12.60;96.70;;;;;;5074286;28;20037;-80
2022/04/23 05:38:03;;;;;;;2.00;1.30;;;12.60;96.70;;;;;;5072134;28;20079;-80
2022/04/23 05:40:32;;;;;;;1.52;1.05;;;12.60;96.70;;;;;;5076286;28;20085;-81
2022/04/23 05:43:00;;;;;;;1.45;1.35;;;12.60;96.70;;;;;;5059470;28;20048;-79
2022/04/23 05:45:29;;;;;;;2.13;1.40;;;12.60;96.70;;;;;;5078679;28;20159;-80
2022/04/23 05:47:58;;;;;;;4.28;1.40;;;12.70;96.70;;;;;;5059682;28;20052;-81
2022/04/23 05:50:26;;;;;;;2.17;1.52;;;12.80;96.70;;;;;;5074899;28;20047;-80
2022/04/23 05:52:56;;;;;;;2.42;1.40;;;12.80;96.70;;;;;;5065406;28;20047;-80
2022/04/23 05:55:24;;;;;;;2.67;1.70;;;12.80;96.70;;;;;;5079210;28;20072;-85
2022/04/23 05:57:52;;;;;;;4.93;1.52;;;12.80;96.70;;;;;;5058927;28;20688;-84
2022/04/23 06:00:21;;;;;;;1.75;1.50;;;12.90;96.70;;;;;;5084398;28;20043;-82
2022/04/23 06:02:49;;;;;;;2.28;1.52;;;13.00;96.70;;;;;;5076828;28;20131;-82
2022/04/23 06:05:17;;;;;;;2.13;1.02;;;13.10;96.70;;;;;;5070665;28;20044;-82
2022/04/23 06:07:45;;;;;;;1.75;1.23;;;13.10;96.70;;;;;;5078386;28;20047;-81
2022/04/23 06:10:16;;;;;;;2.88;1.20;;;13.10;96.70;;;;;;5069653;28;20498;-82
2022/04/23 06:12:44;;;;;;;2.15;1.27;;;13.20;96.70;;;;;;5080976;28;20044;-83
2022/04/23 06:15:12;;;;;;;1.60;1.50;;;13.20;96.70;;;;;;5070920;28;20500;-79
2022/04/23 06:17:41;;;;;;;1.40;1.30;;;13.30;96.70;;;;;;5077813;28;20052;-83
2022/04/23 06:20:09;;;;;;;2.35;1.27;;;13.30;96.70;;;;;;5082630;28;20072;-83
2022/04/23 06:22:38;;;;;;;1.80;1.40;;;13.20;96.70;;;;;;5076976;28;20515;-85
2022/04/23 06:25:06;;;;;;;1.90;1.63;;;13.30;96.70;;;;;;5077427;28;20052;-82
2022/04/23 06:27:36;;;;;;;2.90;1.40;;;13.30;96.70;;;;;;5063910;28;20052;-82
2022/04/23 06:30:06;;;;;;;2.13;1.75;;;13.30;96.70;;;;;;5073585;28;20052;-83
2022/04/23 06:32:34;;;;;;;2.17;1.52;;;13.30;96.70;;;;;;5075181;28;20044;-81
2022/04/23 06:35:03;;;;;;;2.00;1.20;;;13.40;96.70;;;;;;5076898;28;20452;-84
2022/04/23 06:37:36;;;;;;;2.03;1.30;;;13.40;96.70;;;;;;5066241;28;20048;-82
2022/04/23 06:40:05;;;;;;;2.90;1.45;;;13.50;96.70;;;;;;5065812;28;20044;-82
2022/04/23 06:42:35;;;;;;;1.45;1.27;;;13.50;96.70;;;;;;5080368;28;20048;-81
2022/04/23 06:45:04;;;;;;;2.10;1.20;;;13.50;96.70;;;;;;5071257;28;20055;-82
2022/04/23 06:47:32;;;;;;;2.08;1.15;;;13.50;96.70;;;;;;5081777;28;20032;-82
2022/04/23 06:50:00;;;;;;;1.50;1.17;;;13.50;96.70;;;;;;5062894;28;20043;-83
2022/04/23 06:52:28;;;;;;;1.30;1.20;;;13.60;96.70;;;;;;5085177;28;20046;-83
2022/04/23 06:54:56;;;;;;;2.30;1.45;;;13.60;96.70;;;;;;5087255;28;20043;-83
2022/04/23 06:57:25;;;;;;;1.45;1.15;;;13.70;96.70;;;;;;5081876;28;20048;-83
2022/04/23 06:59:54;;;;;;;1.20;1.00;;;13.80;96.70;;;;;;5086223;28;20055;-83
2022/04/23 07:02:22;;;;;;;2.00;0.98;;;13.90;96.70;;;;;;5085151;28;20170;-84
2022/04/23 07:04:51;;;;;;;1.33;0.93;;;13.90;96.70;;;;;;5067208;28;20402;-82
2022/04/23 07:07:19;;;;;;;1.38;1.00;;;13.90;96.70;;;;;;5083274;28;20063;-84
2022/04/23 07:09:47;;;;;;;1.83;1.10;;;14.10;96.70;;;;;;5076459;28;20676;-84
2022/04/23 07:12:15;;;;;;;1.17;0.80;;;14.20;96.70;;;;;;5061669;28;20044;-83
2022/04/23 07:14:43;;;;;;;1.10;0.85;;;14.20;96.70;;;;;;5083911;28;20557;-84
2022/04/23 07:17:13;;;;;;;3.92;1.00;;;14.30;96.70;;;;;;5083650;28;20135;-83
2022/04/23 07:19:41;;;;;;;1.80;0.80;;;14.30;96.70;;;;;;5084760;28;20051;-84
2022/04/23 07:22:10;;;;;;;2.58;0.88;;;14.40;96.70;;;;;;5076654;28;20048;-81
2022/04/23 07:24:43;;;;;;;0.80;0.80;;;14.50;96.70;;;;;;5087251;28;20048;-83
2022/04/23 07:27:11;;;;;;;2.03;0.90;;;14.60;96.70;;;;;;5059974;28;20064;-83
2022/04/23 07:29:39;;;;;;;1.45;1.15;;;14.70;96.70;;;;;;5078697;28;20039;-83
2022/04/23 07:32:08;;;;;;;1.67;1.00;;;14.70;96.70;;;;;;5081422;28;20044;-84
2022/04/23 07:37:31;;;;;;;2.45;1.23;;;14.80;96.70;;;;;;5079295;28;20027;-83
2022/04/23 07:40:10;;;;;;;1.67;1.10;;;14.80;96.70;;;;;;5078716;28;20051;-83
2022/04/23 07:42:38;;;;;;;1.27;1.00;;;14.80;96.70;;;;;;5075229;28;20138;-82
2022/04/23 07:45:09;;;;;;;1.98;1.10;;;14.90;96.70;;;;;;5076916;28;20045;-84
2022/04/23 07:47:37;;;;;;;2.15;0.95;;;15.00;96.70;;;;;;5083598;28;20134;-84
2022/04/23 07:50:08;;;;;;;1.38;0.77;;;15.10;96.70;;;;;;5082211;28;20105;-81
2022/04/23 07:52:38;;;;;;;1.75;0.93;;;15.20;96.70;;;;;;5061577;28;20413;-82
2022/04/23 07:55:08;;;;;;;2.15;0.95;;;15.30;96.70;;;;;;5077478;28;20665;-82
2022/04/23 07:57:36;;;;;;;1.17;0.88;;;15.40;96.70;;;;;;5074661;28;20120;-81
2022/04/23 08:00:06;;;;;;;2.05;1.13;;;15.50;96.70;;;;;;5080042;28;20050;-84
2022/04/23 08:02:38;;;;;;;2.40;1.00;;;15.40;96.70;;;;;;5080183;28;20056;-83
2022/04/23 08:05:10;;;;;;;2.60;0.80;;;15.50;96.70;;;;;;5080047;28;20045;-83
2022/04/23 08:07:39;;;;;;;2.40;1.00;;;15.50;96.70;;;;;;5078612;28;20631;-83
2022/04/23 08:10:09;;;;;;;2.00;0.73;;;15.50;96.70;;;;;;5057610;28;20124;-83
2022/04/23 08:12:38;;;;;;;1.40;0.60;;;15.60;96.70;;;;;;5082793;28;20056;-81
2022/04/23 08:15:07;;;;;;;2.40;0.85;;;15.70;96.70;;;;;;5078753;28;20100;-82
2022/04/23 08:17:35;;;;;;;2.10;0.75;;;15.90;96.70;;;;;;5082180;28;20409;-80
2022/04/23 08:20:04;;;;;;;1.67;0.75;;;15.90;96.70;;;;;;5070479;28;20147;-81
2022/04/23 08:22:34;;;;;;;1.67;1.00;;;16.00;96.70;;;;;;5081664;28;20048;-81
2022/04/23 08:25:03;;;;;;;3.17;1.25;;;16.00;96.70;;;;;;5077897;28;20828;-81
2022/04/23 08:27:46;;;;;;;2.22;0.82;;;16.00;96.70;;;;;;5079664;28;20112;-81
2022/04/23 08:33:02;;;;;;;1.75;0.70;;;16.10;96.70;;;;;;5074789;28;20583;-82
2022/04/23 08:35:31;;;;;;;1.35;0.63;;;16.20;96.70;;;;;;5076292;28;20072;-82
2022/04/23 08:38:01;;;;;;;3.33;0.77;;;16.30;96.70;;;;;;5063488;28;20060;-82
2022/04/23 08:40:34;;;;;;;1.27;0.57;;;16.40;96.70;;;;;;5072737;28;20056;-80
2022/04/23 08:43:02;;;;;;;1.00;0.70;;;16.60;96.70;;;;;;5073862;28;20076;-81
2022/04/23 08:45:32;;;;;;;2.15;0.70;;;16.70;96.70;;;;;;5074918;28;20045;-82
2022/04/23 08:48:01;;;;;;;1.45;0.70;;;16.80;96.70;;;;;;5074806;28;20052;-82
2022/04/23 08:50:29;;;;;;;2.10;0.68;;;16.90;96.70;;;;;;5072050;28;20066;-82
2022/04/23 08:53:00;;;;;;;0.93;0.43;;;17.00;96.70;;;;;;5074284;28;20129;-82
2022/04/23 08:55:30;;;;;;;1.27;0.65;;;17.10;96.70;;;;;;5078732;28;20040;-83
2022/04/23 08:57:58;;;;;;;3.10;0.90;;;17.30;96.70;;;;;;5075077;28;20071;-82
2022/04/23 09:00:26;;;;;;;2.40;1.00;;;17.50;96.70;;;;;;5075033;28;20041;-82
2022/04/23 09:02:56;;;;;;;0.82;0.50;;;17.60;96.70;;;;;;5078227;28;20142;-84
2022/04/23 09:05:27;;;;;;;0.80;0.60;;;17.50;96.70;;;;;;5075899;28;20680;-82
2022/04/23 09:07:56;;;;;;;2.75;0.90;;;17.60;96.70;;;;;;5071538;28;20436;-83
2022/04/23 09:10:43;;;;;;;1.95;0.60;;;17.60;96.70;;;;;;5058934;28;20044;-80
2022/04/23 09:13:23;;;;;;;2.30;0.80;;;17.60;96.70;;;;;;5070143;28;20052;-80
2022/04/23 09:24:47;;;;;;;2.03;0.70;;;18.10;96.70;;;;;;5079216;28;20122;-79
2022/04/23 09:27:17;;;;;;;1.63;0.65;;;18.10;96.70;;;;;;5071097;28;20122;-80
2022/04/23 09:29:58;;;;;;;2.25;1.00;;;18.20;96.70;;;;;;5085933;28;20040;-81
2022/04/23 09:32:27;;;;;;;4.28;1.20;;;18.30;96.70;;;;;;5057923;28;20053;-82
2022/04/23 09:35:10;;;;;;;2.63;1.52;;;18.30;96.70;;;;;;5076796;28;20052;-83
2022/04/23 09:40:27;;;;;;;2.58;0.85;;;18.40;96.70;;;;;;5076573;28;20059;-82
2022/04/23 09:43:01;;;;;;;1.83;0.63;;;18.70;96.70;;;;;;5071642;28;20060;-84
2022/04/23 09:45:31;;;;;;;1.13;0.60;;;18.70;96.70;;;;;;5070126;28;20064;-84
2022/04/23 09:48:16;;;;;;;1.90;0.80;;;18.70;96.70;;;;;;5073507;28;20198;-81
2022/04/23 09:50:45;;;;;;;2.20;0.45;;;18.50;96.70;;;;;;5070056;28;20104;-83
2022/04/23 09:53:14;;;;;;;2.58;0.82;;;18.50;96.70;;;;;;5082249;28;20520;-84
2022/04/23 09:55:45;;;;;;;2.45;0.80;;;18.70;96.70;;;;;;5072756;28;20075;-84
2022/04/23 09:58:16;;;;;;;2.35;0.80;;;18.90;96.70;;;;;;5076472;28;20067;-83
2022/04/23 10:00:47;;;;;;;3.28;1.00;;;19.10;96.70;;;;;;5056711;28;20052;-84
2022/04/23 10:03:15;;;;;;;3.45;0.65;;;19.30;96.70;;;;;;5066901;28;20098;-85
2022/04/23 10:05:47;;;;;;;0.82;0.40;;;19.30;96.70;;;;;;5075192;28;20072;-83
2022/04/23 10:08:17;;;;;;;2.28;0.70;;;19.40;96.70;;;;;;5077082;28;20439;-82
2022/04/23 10:10:53;;;;;;;2.85;0.70;;;19.60;96.70;;;;;;5078266;28;20578;-84
2022/04/23 10:13:25;;;;;;;2.15;1.13;;;19.60;96.70;;;;;;5085914;28;20653;-84
2022/04/23 10:15:54;;;;;;;3.60;1.20;;;19.60;96.70;;;;;;5074632;28;20060;-83
2022/04/23 10:18:23;;;;;;;3.70;1.00;;;19.60;96.70;;;;;;5081264;28;20383;-84
2022/04/23 10:21:00;;;;;;;2.38;1.20;;;19.60;96.70;;;;;;5078734;28;20042;-81
2022/04/23 10:23:46;;;;;;;1.67;0.90;;;19.70;96.70;;;;;;5072844;28;20044;-82
2022/04/23 10:26:32;;;;;;;1.85;0.65;;;19.80;96.70;;;;;;5075994;28;20153;-81
2022/04/23 10:29:06;;;;;;;3.47;0.68;;;19.70;96.70;;;;;;5075067;28;20041;-82
2022/04/23 10:31:34;;;;;;;1.95;0.50;;;19.80;96.70;;;;;;5078181;28;20630;-82
2022/04/23 10:34:03;;;;;;;2.13;0.60;;;19.90;96.70;;;;;;5078479;28;20581;-82
2022/04/23 10:36:31;;;;;;;2.03;0.52;;;20.10;96.70;;;;;;5078697;28;20135;-82
2022/04/23 10:39:23;;;;;;;1.30;0.50;;;20.30;96.70;;;;;;5077244;28;20048;-82
2022/04/23 10:41:53;;;;;;;3.10;0.57;;;20.20;96.70;;;;;;5075020;28;20064;-82
2022/04/23 10:44:29;;;;;;;1.38;0.50;;;19.90;96.70;;;;;;5078086;28;20047;-82
2022/04/23 10:46:58;;;;;;;1.55;0.60;;;20.00;96.70;;;;;;5075521;28;20063;-82
2022/04/23 10:49:26;;;;;;;3.60;0.75;;;20.00;96.70;;;;;;5075865;28;20119;-82
2022/04/23 10:51:56;;;;;;;1.35;0.70;;;20.00;96.70;;;;;;5079510;28;20054;-82
2022/04/23 10:54:55;;;;;;;1.20;0.50;;;20.20;96.70;;;;;;5071346;28;20135;-83
2022/04/23 10:57:24;;;;;;;1.98;0.57;;;20.20;96.70;;;;;;5057399;28;20113;-82
2022/04/23 10:59:54;;;;;;;1.83;0.60;;;20.30;96.70;;;;;;5081849;28;20032;-82
2022/04/23 11:02:32;;;;;;;0.80;0.45;;;20.50;96.70;;;;;;5079501;28;20040;-82
2022/04/23 11:13:31;;;;;;;1.77;0.60;;;20.60;96.70;;;;;;5069838;28;20143;-83
2022/04/23 11:16:14;;;;;;;2.25;0.60;;;20.70;96.70;;;;;;5065463;28;20055;-83
2022/04/23 11:18:43;;;;;;;1.48;0.30;;;20.80;96.70;;;;;;5081369;28;20046;-82
2022/04/23 11:21:17;;;;;;;1.17;0.40;;;21.00;96.70;;;;;;5076475;28;20048;-82
2022/04/23 11:23:47;;;;;;;2.42;0.52;;;20.80;96.70;;;;;;5077200;28;20040;-81
2022/04/23 11:26:17;;;;;;;2.15;0.45;;;20.80;96.70;;;;;;5079759;28;20109;-84
2022/04/23 11:28:46;;;;;;;2.60;0.70;;;20.80;96.70;;;;;;5054961;28;20055;-81
2022/04/23 11:31:17;;;;;;;2.08;0.70;;;20.90;96.70;;;;;;5081558;28;20123;-82
2022/04/23 11:33:53;;;;;;;2.65;0.60;;;21.10;96.70;;;;;;5064755;28;20179;-82
2022/04/23 11:36:26;;;;;;;2.05;0.60;;;21.30;96.70;;;;;;5061121;28;20048;-83
2022/04/23 11:38:54;;;;;;;2.78;0.60;;;21.40;96.70;;;;;;5079230;28;20035;-81
2022/04/23 11:41:30;;;;;;;2.00;0.57;;;21.60;96.70;;;;;;5064523;28;20051;-83
2022/04/23 11:44:12;;;;;;;2.28;0.68;;;21.90;96.70;;;;;;5081181;28;20592;-82
2022/04/23 11:46:46;;;;;;;1.17;0.40;;;21.70;96.70;;;;;;5079924;28;20560;-83
2022/04/23 11:49:27;;;;;;;1.20;0.40;;;21.50;96.70;;;;;;5081500;28;20048;-82
2022/04/23 11:52:02;;;;;;;2.72;0.68;;;21.60;96.70;;;;;;5079158;28;20044;-86
2022/04/23 11:54:35;;;;;;;3.10;0.60;;;21.70;96.70;;;;;;5073651;28;20148;-83
2022/04/23 11:57:05;;;;;;;0.98;0.40;;;21.70;96.70;;;;;;5076442;28;20037;-83
2022/04/23 11:59:37;;;;;;;1.35;0.57;;;21.90;96.70;;;;;;5076485;28;20056;-82
2022/04/23 12:02:19;;;;;;;3.33;2.17;;;22.10;96.70;;;;;;5076404;28;20036;-82
2022/04/23 12:04:50;;;;;;;4.88;2.53;;;21.90;96.70;;;;;;5063744;28;20049;-81
2022/04/23 12:07:20;;;;;;;2.05;1.10;;;21.70;96.70;;;;;;5080609;28;20138;-83
2022/04/23 12:09:50;;;;;;;3.03;0.90;;;21.50;96.70;;;;;;5062337;28;20055;-81
2022/04/23 12:12:19;;;;;;;2.33;0.68;;;21.40;96.70;;;;;;5078324;28;20098;-81
2022/04/23 12:14:48;;;;;;;2.15;0.50;;;21.50;96.70;;;;;;5080417;28;20058;-81
2022/04/23 12:17:22;;;;;;;2.35;0.60;;;21.70;96.70;;;;;;5078783;28;20529;-82
2022/04/23 12:19:50;;;;;;;2.25;0.60;;;21.80;96.70;;;;;;5061736;28;20047;-81
2022/04/23 12:22:28;;;;;;;3.13;0.47;;;22.00;96.70;;;;;;5080833;28;20063;-84
2022/04/23 12:25:09;;;;;;;3.50;0.70;;;22.40;96.70;;;;;;5078741;28;20040;-81
2022/04/23 12:42:10;;;;;;;3.65;0.70;;;22.00;96.70;;;;;;5080431;28;20058;-83
2022/04/23 12:44:42;;;;;;;1.55;0.40;;;22.10;96.70;;;;;;5082332;28;20039;-86
2022/04/23 12:47:17;;;;;;;2.45;0.60;;;22.10;96.70;;;;;;5077348;28;20079;-84
2022/04/23 12:49:47;;;;;;;1.50;0.40;;;22.10;96.70;;;;;;5079750;28;20806;-84
2022/04/23 12:52:19;;;;;;;2.00;0.60;;;22.10;96.70;;;;;;5077012;28;20052;-84
2022/04/23 12:55:12;;;;;;;0.98;0.50;;;22.10;96.70;;;;;;5088936;28;20067;-84
2022/04/23 12:57:51;;;;;;;2.72;0.73;;;22.10;96.70;;;;;;5081271;28;20051;-85
2022/04/23 13:00:20;;;;;;;1.20;0.47;;;22.10;96.70;;;;;;5077831;28;21000;-84
2022/04/23 13:02:52;;;;;;;1.35;0.43;;;22.10;96.70;;;;;;5084169;28;20036;-84
2022/04/23 13:05:22;;;;;;;2.40;0.50;;;22.20;96.70;;;;;;5070319;28;20238;-86
2022/04/23 13:10:38;;;;;;;1.52;0.60;;;22.30;96.70;;;;;;5079713;28;20048;-84
2022/04/23 13:13:09;;;;;;;1.67;0.40;;;22.30;96.70;;;;;;5060195;28;20850;-84
2022/04/23 13:15:37;;;;;;;1.88;0.55;;;22.50;96.70;;;;;;5066574;28;20059;-84
2022/04/23 13:18:06;;;;;;;3.70;0.50;;;22.50;96.70;;;;;;5081801;28;20047;-84
2022/04/23 13:20:36;;;;;;;1.80;0.43;;;22.70;96.70;;;;;;5080833;28;20040;-84
2022/04/23 13:23:05;;;;;;;1.30;0.25;;;22.90;96.70;;;;;;5079451;28;20138;-84
2022/04/23 13:25:33;;;;;;;3.20;0.73;;;22.90;96.70;;;;;;5085327;28;20040;-85
2022/04/23 13:28:01;;;;;;;1.45;0.30;;;22.70;96.70;;;;;;5079179;28;20710;-84
2022/04/23 13:30:29;;;;;;;2.22;0.57;;;22.40;96.70;;;;;;5067505;28;20052;-84
2022/04/23 13:32:57;;;;;;;1.25;0.40;;;22.10;96.70;;;;;;5080118;28;20070;-83
2022/04/23 13:35:25;;;;;;;1.88;0.40;;;22.00;96.70;;;;;;5081296;28;20133;-83
2022/04/23 13:37:54;;;;;;;1.52;0.40;;;21.90;96.70;;;;;;5080514;28;20044;-84
2022/04/23 13:40:22;;;;;;;0.77;0.30;;;21.80;96.70;;;;;;5085615;28;20040;-87
2022/04/23 13:42:52;;;;;;;2.53;0.55;;;21.80;96.70;;;;;;5064504;28;20072;-86
2022/04/23 13:45:20;;;;;;;2.88;0.65;;;21.90;96.70;;;;;;5079165;28;20048;-88
2022/04/23 13:47:50;;;;;;;3.25;0.73;;;21.90;96.70;;;;;;5066384;28;20053;-84